Weather observations for the past three days for
St Marys County Airport
Metric (Imperial)
Date Time (edt) Wind (kph) Vis. (km) Weather Sky Cond. Temperature (ºC) Relative Humidity Wind Chill (°C) Heat Index (°C) Pressure Precipitation (cm)
Air Dwpt 6 hour altimeter (cm) sea level (mb) 1 hr 3 hr 6 hr
Max. Min.
04 20:15 Calm 11.27 Fair CLR 19.4 6.3 43% 75.87 0.0
04 19:55 Calm 9.66 Fair with Haze CLR 21.2 5.6 36% 75.84 0.0
04 19:35 S 6 6.44 Fair with Haze CLR 22.1 5.3 34% 75.84 0.0
04 19:15 S 7 6.44 Fair with Haze CLR 22.8 5 32% 75.84 0.0
04 18:55 S 11 8.05 Fair with Haze CLR 23.4 5 30% 75.84 0.0
04 18:35 SW 15 6.44 Fair with Haze CLR 23.5 4.5 29% 75.84 0.0
04 18:15 S 13 9.66 Fair with Haze CLR 23.9 4.4 28% 25 75.84 0.0
04 17:55 S 13 G 28 6.44 Fair with Haze CLR 23.6 4.1 28% 75.84 0.0
04 17:35 S 17 G 28 8.05 Fair with Haze CLR 23.8 3.8 27% 75.87 0.0
04 17:15 S 15 9.66 Fair with Haze CLR 24 4.3 28% 25 75.87 0.0
04 16:55 SW 20 8.05 Fair with Haze CLR 23.9 3.6 27% 25 75.87 0.0
04 16:35 SW 13 11.27 Fair CLR 25.1 3.1 24% 25 75.84 0.0
04 16:15 Vrbl 9 11.27 Fair CLR 25.2 3.4 24% 25 75.87 0.0
04 15:55 SW 15 11.27 Fair CLR 24.8 3.2 25% 25 75.9 0.0
04 15:35 S 15 11.27 Fair CLR 24.4 3.2 25% 25 75.9 0.0
04 15:15 SW 19 G 30 11.27 Fair CLR 24.5 3.2 25% 25 75.92 0.0
04 14:55 SW 15 11.27 Fair CLR 23.8 2.8 25% 75.95 0.0
04 14:35 Vrbl 11 9.66 Fair with Haze CLR 23.8 2.8 25% 75.97 0.0
04 14:15 S 17 12.87 Fair CLR 24 3.4 26% 25 75.97 0.0
04 13:55 SW 17 11.27 Fair CLR 23.4 3.6 28% 76 0.0
04 13:35 S 15 12.87 Fair CLR 23.1 3.4 28% 76.02 0.0
04 13:15 W 20 G 30 14.48 Fair CLR 22.5 3 28% 76.05 0.0
04 12:55 SW 17 G 28 12.87 Fair CLR 21.9 2.6 28% 76.05 0.0
04 12:35 SW 15 12.87 Fair CLR 21.9 3.4 30% 76.07 0.0
04 12:15 W 15 G 30 12.87 Fair CLR 21.2 2.3 29% 76.1 0.0
04 11:55 SW 17 11.27 A Few Clouds FEW370 20.6 1.9 29% 76.12 0.0
04 11:35 SW 13 9.66 A Few Clouds with Haze FEW370 20.6 3 31% 76.12 0.0
04 11:15 SW 15 12.87 Fair CLR 20 2.6 32% 76.12 0.0
04 10:55 W 11 12.87 Fair CLR 19.3 2.6 33% 76.15 0.0
04 10:35 Vrbl 11 12.87 Fair CLR 18.4 3.7 38% 76.15 0.0
04 10:15 W 15 11.27 Fair CLR 17.6 3.5 39% 76.12 0.0
04 09:55 SW 13 12.87 Fair CLR 16.8 4.1 43% 76.15 0.0
04 09:35 SW 19 12.87 Fair CLR 15.9 3.7 44% 76.15 0.0
04 09:15 SW 17 11.27 Fair CLR 15.2 3.6 46% 76.17 0.0
04 08:55 W 13 12.87 Fair CLR 14.9 3.9 48% 76.17 0.0
04 08:35 SW 15 8.05 Fair with Haze CLR 14.3 4.1 51% 76.2 0.0
04 08:15 SW 11 8.05 A Few Clouds with Haze FEW140 13.5 4.5 55% 76.2 0.0
04 07:55 SW 11 8.05 Mostly Cloudy with Haze BKN140 12.4 4.1 57% 76.2 0.0
04 07:35 SW 13 8.05 Mostly Cloudy with Haze BKN140 12.5 3.9 56% 76.23 0.0
04 07:15 SW 11 8.05 Mostly Cloudy with Haze BKN140 BKN160 12 3.6 57% 76.23 0.0
04 06:55 SW 11 9.66 Overcast with Haze BKN130 OVC160 11.6 3.9 59% 76.23 0.0
04 06:35 SW 9 9.66 Overcast with Haze BKN130 OVC150 11.5 4 60% 76.23 0.0
04 06:15 SW 13 11.27 Overcast SCT100 OVC140 11.2 4.4 63% 76.23 0.0
04 05:55 SW 13 11.27 Overcast OVC100 11.2 4.9 65% 76.23 0.0
04 05:35 SW 11 11.27 Overcast OVC100 11.2 4.9 65% 76.23 0.0
04 05:15 Calm 16.09 Overcast OVC095 11.3 4.6 64% 76.17 0.0
04 05:10 SW 11 9.66 Overcast with Haze OVC100 11.2 4.5 64% 76.23 0.0
04 04:55 Vrbl 7 9.66 Overcast with Haze BKN100 OVC130 11 4.5 65% 76.23 0.0
04 04:35 S 6 11.27 Overcast OVC120 10.5 4.5 67% 76.23 0.0
04 04:15 Calm 11.27 Overcast OVC130 10.5 4.4 66% 76.23 0.0
04 03:55 Calm 12.87 Overcast OVC130 10.5 4.5 67% 76.25 0.0
04 03:35 Calm 11.27 Overcast OVC130 10.9 4.3 64% 76.25 0.0
04 03:15 W 13 16.09 Fair CLR 10.8 4.6 66% 76.25 0.0
04 03:10 S 6 11.27 Overcast OVC130 10.8 4.7 66% 76.25 0.0
04 02:55 Calm 11.27 Overcast OVC130 10.7 4.8 67% 76.28 0.0
04 02:35 S 6 12.87 Overcast BKN120 OVC140 10.9 4.8 66% 76.28 0.0
04 02:20 Calm 16.09 Overcast BKN120 OVC140 10.3 5.2 71% 76.28 0.0
04 01:55 Calm 16.09 Overcast OVC130 9.9 5.2 73% 76.25 0.0
04 01:35 Calm 14.48 Mostly Cloudy BKN130 BKN150 10 5 71% 76.25 0.0
04 01:15 Calm 16.09 Overcast BKN130 OVC150 9.6 4.6 71% 76.25 0.0
04 00:55 SE 6 14.48 Overcast OVC150 9.9 4.2 68% 76.25 0.0
04 00:35 Calm 16.09 Mostly Cloudy BKN160 9.8 3.6 66% 76.28 0.0
04 00:15 SE 7 14.48 A Few Clouds FEW160 9.7 3 63% 9 76.25 0.0
03 23:55 Vrbl 6 14.48 Fair CLR 9.4 2.7 63% 76.25 0.0
03 23:35 Calm 16.09 Fair CLR 10 2.4 60% 76.25 0.0
03 23:15 S 6 16.09 Fair CLR 9.8 2.5 61% 76.23 0.0
03 22:55 Calm 16.09 Fair CLR 10.2 2.6 60% 76.23 0.0
03 22:35 S 6 14.48 Fair CLR 8.7 2.2 64% 76.23 0.0
03 22:15 S 7 16.09 Fair CLR 8.8 2 63% 8 76.23 0.0
03 21:55 S 6 16.09 Fair CLR 9 1.9 61% 76.23 0.0
03 21:35 Calm 16.09 Fair CLR 8.1 1.1 62% 76.23 0.0
03 21:15 Calm 14.48 Fair CLR 8.6 1.2 60% 76.2 0.0
03 20:55 Calm 16.09 Fair CLR 9.2 1.1 57% 76.2 0.0
03 20:35 Calm 16.09 Fair CLR 9.7 0.9 55% 76.17 0.0
03 20:15 Calm 16.09 Fair CLR 10.8 0.7 50% 76.17 0.0
03 19:55 Calm 14.48 Fair CLR 11.7 0.8 47% 76.15 0.0
03 19:35 W 6 12.87 Fair CLR 14.1 -0.8 36% 76.15 0.0
03 19:15 W 7 12.87 Fair CLR 15.3 -1.7 31% 76.12 0.0
03 18:35 Vrbl 6 12.87 Fair CLR 15.9 -2.3 29% 76.15 0.0
03 18:15 NW 13 16.09 Fair CLR 15.9 -2.8 28% 76.15 0.0
03 17:55 W 13 14.48 Fair CLR 16 -2.7 28% 76.15 0.0
03 17:35 W 15 14.48 Fair CLR 16.2 -2.4 28% 76.12 0.0
03 17:15 W 24 G 33 14.48 Fair CLR 16.3 -3 27% 76.12 0.0
03 16:55 W 15 G 33 14.48 Fair CLR 16.3 -2.9 27% 76.12 0.0
03 16:35 W 22 G 33 14.48 Fair CLR 16.3 -2.5 28% 76.12 0.0
03 16:15 W 17 14.48 Fair CLR 16.3 -2.9 27% 76.15 0.0
03 15:55 W 17 G 30 14.48 Fair CLR 15.7 -3.1 27% 76.17 0.0
03 15:35 W 20 G 35 14.48 Fair CLR 15.7 -3.4 27% 76.2 0.0
03 15:15 W 24 G 37 14.48 Fair CLR 15.8 -3.1 27% 76.23 0.0
03 14:55 W 17 G 30 14.48 Fair CLR 15.2 -3.1 28% 76.23 0.0
03 14:35 W 17 14.48 Fair CLR 14.6 -3.1 30% 76.23 0.0
03 14:15 W 19 G 33 14.48 Fair CLR 14.8 -2.8 30% 76.25 0.0
03 13:55 Calm 14.48 Fair CLR 14.1 -4.5 27% 76.25 0.0
03 13:35 W 15 G 33 14.48 A Few Clouds FEW380 13.9 -3.6 30% 76.25 0.0
03 13:15 W 19 14.48 Fair CLR 14 -3.1 31% 76.28 0.0
03 12:55 W 13 14.48 A Few Clouds FEW070 13.5 -3.4 31% 76.28 0.0
03 12:35 Vrbl 11 16.09 Fair CLR 13.5 -3.2 31% 76.28 0.0
03 12:15 Vrbl 7 14.48 Fair CLR 12.9 -4.3 30% 76.3 0.0
03 11:55 W 22 G 33 14.48 Fair CLR 12.6 -4.6 30% 76.3 0.0
03 11:35 N 13 14.48 Fair CLR 11.8 -4.9 31% 76.3 0.0
03 11:15 NW 15 16.09 Fair CLR 11.8 -4.6 32% 76.3 0.0
03 10:55 W 13 G 31 14.48 Fair CLR 11.3 -4.2 34% 76.3 0.0
03 10:35 W 20 G 31 16.09 A Few Clouds FEW060 10.9 -4.4 34% 76.33 0.0
03 10:15 NW 15 G 28 14.48 A Few Clouds FEW060 10.8 -4.3 35% 76.33 0.0
03 09:55 W 11 G 30 16.09 Fair CLR 10.3 -3.1 39% 76.3 0.0
03 09:35 NW 15 12.87 Fair CLR 9.3 -3.6 40% 7 76.33 0.0
03 09:15 NW 13 G 28 16.09 Fair CLR 9.6 -2.7 42% 8 76.33 0.0
03 08:55 W 11 16.09 Fair CLR 9.3 -2.2 45% 8 76.3 0.0
03 08:35 NW 15 G 30 12.87 Fair CLR 8.9 -1.6 48% 7 76.3 0.0
03 08:15 NW 17 14.48 Fair CLR 8.4 -1.4 50% 6 76.28 0.0
03 07:55 NW 15 14.48 Fair CLR 8 -0.6 55% 6 76.3 0.0
03 07:35 Vrbl 6 14.48 Fair CLR 7.4 -0.1 59% 76.25 0.0
03 07:15 Vrbl 9 14.48 Fair CLR 6.5 0.2 64% 5 76.23 0.0
03 06:55 W 9 14.48 Fair CLR 6.1 0.3 67% 4 76.23 0.0
03 06:35 Vrbl 7 16.09 Fair CLR 5.7 -0.1 67% 4 76.2 0.0
03 06:15 Vrbl 7 16.09 Fair CLR 5.6 -0.1 67% 4 76.17 0.0
03 05:55 W 7 16.09 Fair CLR 6 -0.1 65% 5 76.15 0.0
03 05:35 W 7 16.09 Fair CLR 6.3 -0.3 63% 5 76.12 0.0
03 05:15 NW 11 16.09 Fair CLR 6.6 -0.4 61% 5 76.12 0.0
03 04:55 Vrbl 7 16.09 Fair CLR 6.9 -0.4 60% 6 76.1 0.0
03 04:35 Vrbl 7 16.09 Fair CLR 7.2 -0.4 59% 6 76.07 0.0
03 04:15 Vrbl 7 16.09 A Few Clouds FEW080 7.6 -0.4 57% 7 76.07 0.0
03 03:55 Vrbl 9 16.09 Mostly Cloudy BKN080 BKN095 8 -0.5 55% 7 76.05 0.0
03 03:35 W 9 16.09 Mostly Cloudy BKN075 8.2 -0.2 56% 7 76.05 0.0
03 03:15 Vrbl 7 16.09 Partly Cloudy SCT080 8.3 0 56% 7 76.02 0.0
03 02:55 Vrbl 7 16.09 Partly Cloudy SCT100 8.8 -0.2 54% 8 76.02 0.0
03 02:35 Vrbl 7 14.48 Overcast OVC100 9.4 -0.3 51% 9 76 0.0
03 02:15 Vrbl 9 16.09 Overcast OVC095 9.9 -0.1 50% 9 76 0.0
03 01:55 NW 7 16.09 Overcast OVC095 10.1 0.1 50% 76.02 0.0
03 01:35 NW 11 16.09 Overcast OVC100 10.3 0.1 50% 76.02 0.0
03 01:15 Calm 16.09 Overcast OVC100 10.6 0.3 49% 76.02 0.0
03 00:55 Vrbl 6 14.48 Overcast OVC100 11 0.3 48% 76.02 0.0
03 00:35 Vrbl 7 16.09 Overcast OVC100 11.3 0.1 46% 76.02 0.0
03 00:15 Vrbl 9 14.48 Overcast OVC100 11.6 0 45% 76 0.0
02 23:55 Calm 16.09 Overcast OVC100 11.7 0.1 45% 76 0.0
02 23:35 Vrbl 7 16.09 Overcast OVC100 11.4 1.1 49% 75.97 0.0
02 23:15 Calm 16.09 Overcast SCT100 OVC170 11 1.7 53% 76 0.0
02 22:55 Calm 16.09 Overcast OVC170 10.5 2.8 59% 75.97 0.0
02 22:35 Calm 16.09 Overcast OVC170 10.2 3.6 64% 75.97 0.0
02 22:15 Calm 14.48 Overcast OVC160 9.7 4.9 72% 76 0.0
02 21:55 W 6 16.09 Overcast OVC160 9.2 5.6 78% 76 0.0
02 21:35 Calm 16.09 Mostly Cloudy BKN160 9.6 5.5 76% 75.97 0.0
02 21:15 Calm 16.09 Mostly Cloudy BKN160 9.8 5.1 73% 75.97 0.0
02 20:55 Calm 14.48 Overcast OVC160 10.2 4.7 69% 75.97 0.0
02 20:35 Calm 14.48 Overcast OVC160 10.2 5.3 72% 75.95 0.0
02 20:15 Calm 14.48 Overcast OVC160 10.2 5.2 71% 75.9 0.0
02 19:55 Calm 12.87 Overcast FEW075 OVC160 10.5 5 69% 75.9 0.0
02 19:35 Calm 12.87 Overcast BKN075 OVC160 11.5 4.6 63% 75.9 0.0
02 19:15 Calm 11.27 Overcast BKN075 OVC160 12.2 4.2 58% 75.9 0.0
02 18:55 Calm 11.27 Overcast OVC075 13 2.8 50% 75.9 0.0
02 18:35 Calm 11.27 Overcast OVC070 13.2 2.6 49% 75.9 0.0
02 18:15 Calm 11.27 Mostly Cloudy BKN070 BKN180 13.6 1.7 45% 75.9 0.0
02 17:55 Vrbl 7 12.87 Mostly Cloudy FEW065 BKN180 13.8 0.9 42% 75.9 0.0
02 17:35 Vrbl 7 11.27 Light Rain OVC065 13.8 2 45% 75.9 0.0
02 17:15 Calm 9.66 Light Rain BKN065 OVC160 13.4 2.1 47% 75.9 0.0
02 16:55 NE 9 11.27 Mostly Cloudy SCT065 BKN170 13.6 2.2 46% 75.87 0.0
02 16:35 Vrbl 7 11.27 Overcast OVC160 14.4 2.9 46% 75.87 0.0
02 16:15 Vrbl 6 11.27 Mostly Cloudy FEW065 BKN160 14.1 2.5 46% 75.87 0.0
02 15:15 Calm 14.48 Mostly Cloudy FEW060 SCT170 BKN310 14.3 1.6 42% 75.9 0.0
02 14:55 Vrbl 6 12.87 Partly Cloudy FEW060 SCT340 14.5 1.8 42% 75.95 0.0
02 14:35 Vrbl 6 14.48 Partly Cloudy FEW049 SCT350 14.7 2.8 45% 75.97 0.0
02 14:15 Calm 12.87 Mostly Cloudy BKN048 BKN085 13.7 1.7 44% 76 0.0
02 13:55 Vrbl 9 14.48 Mostly Cloudy FEW085 BKN170 14.1 2.9 47% 76.02 0.0
02 13:35 Vrbl 9 14.48 Mostly Cloudy FEW095 BKN170 BKN190 13.5 2.6 48% 76.02 0.0
02 13:15 Calm 11.27 Mostly Cloudy FEW041 BKN095 BKN160 12.8 1.3 46% 76.05 0.0
02 12:55 Vrbl 6 9.66 Light Rain FEW041 SCT095 OVC160 13.2 3.3 51% 76.05 0.0
02 12:35 Vrbl 9 14.48 Mostly Cloudy FEW100 BKN170 12.9 2.8 51% 76.07 0.0
02 12:15 Calm 14.48 Overcast SCT100 BKN170 OVC190 12.9 3.3 52% 76.05 0.0
02 11:55 NW 6 11.27 Light Rain FEW080 SCT095 OVC180 12.3 3.4 55% 76.07 0.0
02 11:35 NW 9 12.87 Mostly Cloudy SCT080 BKN170 BKN320 12.3 3.5 55% 76.1 0.0
02 11:15 Vrbl 7 12.87 Light Rain SCT080 BKN180 12.4 3.3 54% 76.1 0.0
02 10:55 Vrbl 7 11.27 Mostly Cloudy FEW075 BKN180 12 3.2 55% 76.1 0.0
02 10:35 Vrbl 6 14.48 Mostly Cloudy BKN180 12.1 3.4 56% 76.05 0.0
02 10:15 Vrbl 9 12.87 Overcast OVC180 12.4 3.5 55% 76.05 0.0
02 09:55 Vrbl 7 14.48 Overcast OVC180 11.7 3.2 56% 76.05 0.0
02 09:35 Calm 12.87 Light Rain BKN180 11.4 3.2 57% 76.05 0.0
02 09:15 Vrbl 9 12.87 Light Rain BKN170 BKN190 11.4 3 57% 76.05 0.0
02 08:55 Vrbl 11 11.27 Light Rain BKN170 OVC190 11.4 4.1 61% 76.05 0.0
02 08:35 Vrbl 11 11.27 Light Rain BKN180 11.1 4.2 63% 76.05 0.0
02 08:15 Calm 11.27 A Few Clouds FEW190 10.9 4.7 66% 76.02 0.0
02 07:55 Calm 12.87 Fair CLR 10.9 5.3 69% 76.05 0.0
02 07:35 Vrbl 6 14.48 Fair CLR 10.8 5 68% 76.05 0.0
02 07:15 Vrbl 6 12.87 Fair CLR 10.5 6.3 75% 76.05 0.0
02 06:55 Calm 12.87 Fair CLR 9.4 7.5 88% 76.02 0.0
02 06:35 Calm 12.87 Fair CLR 9.8 7.1 83% 76.02 0.0
02 06:15 Calm 16.09 Fair CLR 10.6 7 79% 76.02 0.0
02 05:55 Calm 16.09 A Few Clouds FEW060 10.7 7 78% 76 0.0
02 05:35 Calm 14.48 A Few Clouds FEW060 10.9 7.1 78% 75.97 0.0
02 05:15 Calm 14.48 Fair CLR 10.8 7.2 79% 75.95 0.0
02 04:55 Calm 16.09 Fair CLR 9.6 7.5 87% 75.97 0.0
02 04:35 Calm 16.09 Fair CLR 8.6 8.1 97% 75.97 0.0
02 04:15 Calm 16.09 A Few Clouds FEW110 8.8 8.3 97% 75.95 0.0
02 03:55 Calm 14.48 A Few Clouds FEW110 8.9 8.5 97% 75.92 0.0
02 03:35 W 6 14.48 Fair CLR 9.4 8.7 95% 75.92 0.0
02 03:15 Calm 14.48 Fair CLR 9.6 9 96% 75.92 0.0
02 02:55 Calm 14.48 Fair CLR 9 8.7 98% 75.9 0.0
02 02:35 Calm 14.48 Fair CLR 9.7 8.9 95% 75.9 0.0
02 02:15 Calm 12.87 Fair CLR 9.7 8.9 95% 75.92 0.0
02 01:55 Calm 16.09 Fair CLR 11 9.2 89% 75.97 0.0
02 01:35 W 7 16.09 Fair CLR 11.2 9.2 88% 76 0.0
02 01:15 SW 6 12.87 Light Rain CLR 11.6 9.3 86% 75.97 0.0
02 00:55 S 9 12.87 Fair CLR 12 9.2 83% 75.95 0.0
02 00:35 Vrbl 6 12.87 Light Rain CLR 12.1 9 82% 75.95 0.0
02 00:15 S 6 12.87 Light Rain SCT110 12.2 8.9 80% 75.95 0.0
01 23:55 S 6 12.87 Light Rain SCT100 BKN130 12.2 8.9 80% 75.95 0.0
01 23:35 Vrbl 9 12.87 Light Rain FEW100 12 8.6 80% 75.95 0.0
01 23:15 S 6 14.48 Fair CLR 11.9 8 77% 75.95 0.0
01 22:55 S 6 12.87 Light Rain CLR 11.9 7.7 76% 75.92 0.0
01 22:35 SE 11 12.87 Light Rain CLR 12.1 7.6 74% 75.95 0.0
01 22:15 SE 7 12.87 Light Rain CLR 12.3 7.5 73% 75.95 0.0
01 21:35 SE 11 11.27 Light Rain CLR 12.7 6.9 68% 75.95 0.0
01 21:15 SE 7 16.09 Fair CLR 12.9 6.7 66% 75.92 0.0
01 20:55 SE 11 14.48 Fair CLR 13.2 6.5 64% 75.9 0.0
01 20:35 SE 15 16.09 Fair CLR 13.6 6.1 61% 75.87 0.0
Date Time (edt) Wind (kph) Vis. (km) Weather Sky Cond. Air Dwpt Max. Min. Relative Humidity Wind Chill (°C) Heat Index (°C) altimeter (cm) sea level (mb) 1 hr 3 hr 6 hr
6 hour
Temperature (ºC) Pressure Precipitation (cm)